Hua Sheng Hai — VRQE2 — position and weather

sailwx.info

Track history (hours):
 
Tides and Currents Weather Stations Pressure Air Temp Water Temp Dewpoint Dewpoint Depression Visibility Wind Speed Wind Dir Waves Ship Positions

Hua Sheng Hai

Last reported at 2017-Dec-08 01:55 UTC. Time now 2017-Dec-12 06:25 UTC.
Position N 35°54' W 023°55'.

Length 229 m; draft 14.4 m.

Type: Cargo ship. MMSI: 477252900.

Date/timePositionNaut miles runAvg speedWind from/ knotsBaromVisibWave heightAir tempDewpointWater temp
2017-Dec-08 01:55N 35°54' W 023°55'512.1
2017-Dec-08 01:29N 35°54' W 024°01'812.0
2017-Dec-08 00:50N 35°54' W 024°11'512.1
2017-Dec-08 00:25N 35°54' W 024°17'512.1
2017-Dec-08 00:00N 35°54' W 024°23'611.9
2017-Dec-07 23:30N 35°54' W 024°30'611.9
2017-Dec-07 23:00N 35°54' W 024°38'611.6
2017-Dec-07 22:31N 35°54' W 024°45'611.7
2017-Dec-07 22:00N 35°54' W 024°52'611.6
2017-Dec-07 21:30N 35°54' W 024°59'611.5
2017-Dec-07 21:01N 35°54' W 025°06'611.6
2017-Dec-07 20:30N 35°54' W 025°14'611.8
2017-Dec-07 20:00N 35°54' W 025°21'611.9
2017-Dec-07 19:30N 35°54' W 025°28'612.0
2017-Dec-07 19:00N 35°54' W 025°36'611.8
2017-Dec-07 18:30N 35°54' W 025°43'611.7
2017-Dec-07 18:00N 35°54' W 025°50'611.7
2017-Dec-07 17:30N 35°54' W 025°58'  
2017-Nov-29 01:21N 36°53' W 075°53'3 9.4
2017-Nov-29 01:00N 36°55' W 075°56'5 9.1
2017-Nov-29 00:30N 36°57' W 076°01'510.1
2017-Nov-29 00:00N 36°59' W 076°07'11 8.6
2017-Nov-28 22:41N 36°58' W 076°21'2 9.5
2017-Nov-28 22:30N 36°57' W 076°23'2 0.2
2017-Nov-28 14:50N 36°58' W 076°25'0 0.0
2017-Nov-28 14:26N 36°58' W 076°25'0 0.0
2017-Nov-28 03:59N 36°58' W 076°25'  
Track history (hours):
 
Tides and Currents Weather Stations Pressure Air Temp Water Temp Dewpoint Dewpoint Depression Visibility Wind Speed Wind Dir Waves Ship Positions

Hua Sheng Hai

Last reported at 2017-Dec-08 01:55 UTC. Time now 2017-Dec-12 06:25 UTC.
Position N 35°54' W 023°55'.

Length 229 m; draft 14.4 m.

Type: Cargo ship. MMSI: 477252900.

Date/timePositionNaut miles runAvg speedWind from/ knotsBaromVisibWave heightAir tempDewpointWater temp
2017-Dec-08 01:55N 35°54' W 023°55'512.1
2017-Dec-08 01:29N 35°54' W 024°01'812.0
2017-Dec-08 00:50N 35°54' W 024°11'512.1
2017-Dec-08 00:25N 35°54' W 024°17'512.1
2017-Dec-08 00:00N 35°54' W 024°23'611.9
2017-Dec-07 23:30N 35°54' W 024°30'611.9
2017-Dec-07 23:00N 35°54' W 024°38'611.6
2017-Dec-07 22:31N 35°54' W 024°45'611.7
2017-Dec-07 22:00N 35°54' W 024°52'611.6
2017-Dec-07 21:30N 35°54' W 024°59'611.5
2017-Dec-07 21:01N 35°54' W 025°06'611.6
2017-Dec-07 20:30N 35°54' W 025°14'611.8
2017-Dec-07 20:00N 35°54' W 025°21'611.9
2017-Dec-07 19:30N 35°54' W 025°28'612.0
2017-Dec-07 19:00N 35°54' W 025°36'611.8
2017-Dec-07 18:30N 35°54' W 025°43'611.7
2017-Dec-07 18:00N 35°54' W 025°50'611.7
2017-Dec-07 17:30N 35°54' W 025°58'  
2017-Nov-29 01:21N 36°53' W 075°53'3 9.4
2017-Nov-29 01:00N 36°55' W 075°56'5 9.1
2017-Nov-29 00:30N 36°57' W 076°01'510.1
2017-Nov-29 00:00N 36°59' W 076°07'11 8.6
2017-Nov-28 22:41N 36°58' W 076°21'2 9.5
2017-Nov-28 22:30N 36°57' W 076°23'2 0.2
2017-Nov-28 14:50N 36°58' W 076°25'0 0.0
2017-Nov-28 14:26N 36°58' W 076°25'0 0.0
2017-Nov-28 03:59N 36°58' W 076°25'  

Dump ship's entire track history